createdAt,value
2019-03-11T00:00:17.963Z,96.40
2019-03-11T00:02:46.426Z,96.50
2019-03-11T00:05:14.805Z,96.30
2019-03-11T00:07:44.952Z,96.30
2019-03-11T00:10:13.457Z,96.60
2019-03-11T00:12:41.880Z,96.30
2019-03-11T00:15:10.257Z,96.20
2019-03-11T00:17:38.876Z,96.20
2019-03-11T00:20:09.265Z,96.30
2019-03-11T00:22:37.680Z,96.10
2019-03-11T00:25:07.085Z,96.10
2019-03-11T00:27:35.533Z,96.20
2019-03-11T00:30:11.933Z,96.30
2019-03-11T00:32:40.311Z,96.30
2019-03-11T00:35:08.775Z,96.40
2019-03-11T00:37:37.206Z,96.50
2019-03-11T00:40:11.378Z,96.50
2019-03-11T00:42:39.867Z,96.60
2019-03-11T00:45:10.814Z,96.50
2019-03-11T00:47:39.235Z,96.60
2019-03-11T00:50:09.917Z,96.60
2019-03-11T00:52:38.353Z,96.60
2019-03-11T00:55:09.070Z,96.70
2019-03-11T00:57:37.523Z,96.70
2019-03-11T01:00:09.189Z,96.80
2019-03-11T01:02:37.585Z,96.70
2019-03-11T01:05:06.025Z,96.50
2019-03-11T01:07:34.465Z,96.60
2019-03-11T01:10:03.366Z,96.70
2019-03-11T01:12:31.785Z,96.70
2019-03-11T01:15:00.360Z,96.70
2019-03-11T01:17:28.865Z,96.80
2019-03-11T01:19:57.354Z,96.90
2019-03-11T01:22:25.786Z,97.00
2019-03-11T01:24:54.316Z,97.00
2019-03-11T01:27:22.736Z,97.00
2019-03-11T01:29:51.180Z,97.00
2019-03-11T01:32:19.578Z,97.00
2019-03-11T01:34:48.010Z,97.30
2019-03-11T01:37:16.489Z,97.20
2019-03-11T01:39:44.855Z,97.00
2019-03-11T01:42:13.248Z,97.10
2019-03-11T01:44:41.642Z,97.00
2019-03-11T01:47:10.129Z,97.20
2019-03-11T01:49:38.698Z,97.00
2019-03-11T01:52:07.181Z,97.10
2019-03-11T01:54:35.612Z,97.10
2019-03-11T01:57:04.111Z,97.00
2019-03-11T01:59:32.602Z,97.00
2019-03-11T02:02:01.054Z,97.10
2019-03-11T02:04:29.473Z,97.00
2019-03-11T02:06:57.890Z,97.00
2019-03-11T02:09:26.322Z,97.10
2019-03-11T02:11:54.735Z,97.20
2019-03-11T02:14:23.313Z,97.00
2019-03-11T02:16:51.723Z,97.30
2019-03-11T02:19:20.102Z,97.10
2019-03-11T02:21:48.561Z,97.10
2019-03-11T02:24:16.986Z,97.00
2019-03-11T02:26:45.418Z,96.90
2019-03-11T02:29:13.838Z,97.00
2019-03-11T02:31:42.254Z,97.00
2019-03-11T02:34:10.643Z,96.90
2019-03-11T02:36:39.190Z,96.50
2019-03-11T02:39:07.720Z,96.60
2019-03-11T02:41:36.126Z,96.30
2019-03-11T02:44:04.613Z,96.40
2019-03-11T02:46:33.165Z,96.50
2019-03-11T02:49:01.585Z,96.30
2019-03-11T02:51:30.106Z,96.10
2019-03-11T02:53:58.517Z,96.10
2019-03-11T02:56:26.902Z,96.20
2019-03-11T02:58:55.464Z,96.40
2019-03-11T03:01:34.723Z,96.80
2019-03-11T03:04:04.790Z,96.10
2019-03-11T03:06:33.295Z,96.60
2019-03-11T03:09:01.734Z,96.30
2019-03-11T03:11:30.123Z,96.40
2019-03-11T03:13:58.539Z,96.20
2019-03-11T03:16:26.959Z,96.30
2019-03-11T03:18:55.529Z,96.20
2019-03-11T03:21:24.022Z,96.10
2019-03-11T03:23:52.639Z,95.90
2019-03-11T03:26:21.307Z,96.10
2019-03-11T03:28:49.758Z,95.90
2019-03-11T03:31:18.109Z,95.60
2019-03-11T03:33:46.577Z,95.40
2019-03-11T03:36:14.959Z,95.00
2019-03-11T03:38:43.470Z,94.90
2019-03-11T03:41:11.878Z,95.00
2019-03-11T03:43:40.246Z,95.00
2019-03-11T03:46:18.563Z,95.10
2019-03-11T03:48:39.156Z,95.10
2019-03-11T03:51:07.707Z,94.80
2019-03-11T03:53:36.128Z,95.10
2019-03-11T03:56:04.739Z,95.20
2019-03-11T03:58:33.246Z,95.20
2019-03-11T04:01:01.649Z,94.90
2019-03-11T04:03:30.111Z,94.90
2019-03-11T04:05:58.529Z,94.80
2019-03-11T04:08:26.950Z,95.10
2019-03-11T04:10:55.403Z,95.10
2019-03-11T04:13:23.850Z,95.10
2019-03-11T04:15:52.253Z,95.30
2019-03-11T04:18:20.647Z,95.30
2019-03-11T04:20:49.039Z,95.40
2019-03-11T04:23:17.461Z,95.40
2019-03-11T04:25:46.000Z,95.40
2019-03-11T04:28:14.502Z,95.50
2019-03-11T04:30:42.922Z,95.40
2019-03-11T04:33:11.383Z,95.50
2019-03-11T04:35:39.768Z,95.70
2019-03-11T04:38:08.247Z,95.60
2019-03-11T04:40:36.707Z,95.60
2019-03-11T04:43:05.085Z,95.60
2019-03-11T04:45:33.534Z,95.60
2019-03-11T04:48:01.975Z,95.60
2019-03-11T04:50:30.556Z,95.80
2019-03-11T04:52:59.056Z,95.60
2019-03-11T04:55:27.468Z,95.60
2019-03-11T04:57:56.385Z,95.50
2019-03-11T05:00:29.696Z,95.70
2019-03-11T05:02:58.199Z,96.10
2019-03-11T05:05:26.639Z,95.60
2019-03-11T05:07:55.032Z,95.50
2019-03-11T05:10:23.453Z,95.60
2019-03-11T05:12:51.847Z,95.50
2019-03-11T05:15:20.277Z,95.60
2019-03-11T05:17:48.996Z,95.60
2019-03-11T05:20:17.582Z,95.70
2019-03-11T05:22:46.052Z,95.70
2019-03-11T05:25:15.301Z,95.80
2019-03-11T05:27:43.874Z,95.80
2019-03-11T05:30:18.424Z,95.90
2019-03-11T05:32:46.901Z,95.80
2019-03-11T05:35:15.510Z,95.70
2019-03-11T05:37:43.880Z,95.70
2019-03-11T05:40:13.662Z,95.70
2019-03-11T05:42:42.043Z,95.60
2019-03-11T05:45:12.502Z,95.60
2019-03-11T05:47:40.962Z,95.60
2019-03-11T05:50:14.243Z,95.40
2019-03-11T05:52:42.661Z,95.40
2019-03-11T05:55:12.043Z,95.30
2019-03-11T05:57:40.438Z,95.10
2019-03-11T06:00:19.004Z,95.00
2019-03-11T06:02:47.341Z,94.90
2019-03-11T06:05:15.743Z,94.70
2019-03-11T06:07:44.284Z,94.00
2019-03-11T06:10:14.154Z,94.20
2019-03-11T06:12:42.612Z,94.20
2019-03-11T06:15:12.914Z,94.60
2019-03-11T06:17:41.355Z,94.70
2019-03-11T06:20:22.156Z,94.90
2019-03-11T06:22:50.753Z,94.70
2019-03-11T06:25:19.230Z,95.40
2019-03-11T06:27:47.652Z,95.30
2019-03-11T06:30:16.108Z,95.60
2019-03-11T06:32:44.640Z,95.00
2019-03-11T06:35:13.210Z,95.70
2019-03-11T06:37:41.614Z,95.30
2019-03-11T06:40:11.673Z,94.90
2019-03-11T06:42:40.070Z,95.30
2019-03-11T06:45:10.235Z,94.10
2019-03-11T06:47:38.677Z,94.00
2019-03-11T06:50:12.139Z,94.30
2019-03-11T06:52:40.527Z,94.30
2019-03-11T06:55:10.060Z,94.10
2019-03-11T06:57:38.598Z,94.10
2019-03-11T07:00:18.330Z,94.10
2019-03-11T07:02:46.781Z,94.00
2019-03-11T07:05:20.289Z,94.10
2019-03-11T07:07:45.303Z,94.30
2019-03-11T07:10:14.982Z,94.20
2019-03-11T07:12:43.413Z,94.40
2019-03-11T07:15:14.156Z,93.90
2019-03-11T07:17:42.536Z,94.20
2019-03-11T07:20:13.903Z,94.10
2019-03-11T07:22:48.603Z,94.50
2019-03-11T07:25:17.066Z,94.30
2019-03-11T07:27:45.694Z,94.40
2019-03-11T07:30:20.481Z,94.00
2019-03-11T07:32:48.933Z,94.20
2019-03-11T07:35:17.546Z,94.60
2019-03-11T07:37:46.072Z,94.50
2019-03-11T07:40:15.647Z,94.30
2019-03-11T07:42:44.166Z,93.90
2019-03-11T07:45:14.638Z,93.80
2019-03-11T07:47:43.033Z,93.10
2019-03-11T07:50:13.561Z,93.20
2019-03-11T07:52:42.282Z,90.90
2019-03-11T07:55:13.181Z,88.70
2019-03-11T07:57:41.776Z,85.50
2019-03-11T08:00:17.582Z,85.10
2019-03-11T08:02:46.009Z,87.80
2019-03-11T08:05:14.476Z,85.10
2019-03-11T08:07:42.886Z,84.20
2019-03-11T08:10:14.012Z,83.80
2019-03-11T08:12:42.478Z,82.00
2019-03-11T08:15:14.858Z,81.30
2019-03-11T08:17:43.431Z,78.60
2019-03-11T08:20:13.161Z,82.70
2019-03-11T08:22:41.674Z,80.30
2019-03-11T08:25:12.457Z,83.50
2019-03-11T08:27:40.896Z,83.00
2019-03-11T08:30:15.544Z,84.60
2019-03-11T08:32:43.963Z,86.50
2019-03-11T08:35:12.428Z,85.10
2019-03-11T08:37:40.838Z,86.80
2019-03-11T08:40:14.532Z,87.40
2019-03-11T08:42:42.909Z,85.30
2019-03-11T08:45:16.367Z,84.70
2019-03-11T08:47:44.756Z,83.70
2019-03-11T08:50:16.453Z,84.20
2019-03-11T08:52:44.852Z,82.10
2019-03-11T08:55:13.516Z,82.40
2019-03-11T08:57:41.994Z,83.00
2019-03-11T09:00:16.667Z,84.20
2019-03-11T09:02:46.122Z,85.20
2019-03-11T09:05:14.540Z,84.10
2019-03-11T09:07:43.069Z,84.50
2019-03-11T09:10:15.383Z,82.20
2019-03-11T09:12:43.791Z,82.00
2019-03-11T09:15:13.944Z,77.10
2019-03-11T09:17:42.380Z,78.00
2019-03-11T09:20:15.589Z,77.80
2019-03-11T09:22:44.066Z,69.70
2019-03-11T09:25:20.426Z,75.70
2019-03-11T09:27:50.849Z,75.80
2019-03-11T09:30:21.340Z,79.20
2019-03-11T09:32:49.747Z,78.40
2019-03-11T09:35:18.293Z,79.00
2019-03-11T09:37:46.730Z,81.30
2019-03-11T09:40:19.618Z,78.10
2019-03-11T09:42:48.119Z,76.30
2019-03-11T09:45:18.759Z,75.30
2019-03-11T09:47:47.561Z,78.80
2019-03-11T09:50:16.278Z,76.10
2019-03-11T09:52:44.726Z,76.30
2019-03-11T09:55:16.364Z,74.90
2019-03-11T09:57:44.779Z,74.20
2019-03-11T10:00:22.096Z,75.80
2019-03-11T10:02:52.835Z,74.80
2019-03-11T10:05:20.904Z,73.70
2019-03-11T10:07:49.330Z,75.50
2019-03-11T10:10:22.775Z,75.50
2019-03-11T10:12:51.286Z,75.00
2019-03-11T10:15:23.282Z,77.30
2019-03-11T10:17:51.682Z,75.80
2019-03-11T10:20:20.728Z,77.60
2019-03-11T10:22:49.368Z,77.00
2019-03-11T10:25:18.348Z,76.60
2019-03-11T10:27:46.753Z,83.60
2019-03-11T10:30:19.099Z,90.40
2019-03-11T10:32:47.627Z,90.40
2019-03-11T10:35:31.513Z,83.70
2019-03-11T10:37:47.186Z,81.60
2019-03-11T10:40:25.847Z,80.30
2019-03-11T10:42:54.329Z,78.70
2019-03-11T10:45:31.187Z,79.10
2019-03-11T10:47:52.924Z,78.60
2019-03-11T10:50:21.563Z,81.70
2019-03-11T10:52:50.056Z,81.20
2019-03-11T10:55:23.883Z,82.30
2019-03-11T10:57:52.552Z,79.70
2019-03-11T11:00:29.318Z,81.30
2019-03-11T11:02:57.712Z,78.60
2019-03-11T11:05:26.166Z,78.10
2019-03-11T11:07:54.680Z,77.80
2019-03-11T11:10:23.086Z,78.10
2019-03-11T11:12:51.545Z,79.60
2019-03-11T11:15:26.603Z,79.20
2019-03-11T11:17:55.149Z,76.70
2019-03-11T11:20:24.088Z,81.80
2019-03-11T11:22:53.544Z,82.50
2019-03-11T11:25:25.907Z,77.60
2019-03-11T11:27:54.371Z,74.10
2019-03-11T11:30:24.139Z,75.40
2019-03-11T11:32:52.571Z,80.40
2019-03-11T11:35:21.105Z,79.10
2019-03-11T11:37:49.754Z,75.90
2019-03-11T11:40:26.266Z,73.70
2019-03-11T11:42:54.673Z,71.80
2019-03-11T11:45:25.190Z,70.90
2019-03-11T11:47:53.596Z,69.70
2019-03-11T11:50:23.162Z,68.90
2019-03-11T11:52:51.723Z,70.20
2019-03-11T11:55:21.193Z,70.80
2019-03-11T11:57:49.742Z,73.20
2019-03-11T12:00:23.762Z,75.40
2019-03-11T12:02:52.358Z,73.30
2019-03-11T12:05:20.923Z,75.50
2019-03-11T12:07:49.347Z,76.40
2019-03-11T12:10:23.876Z,74.20
2019-03-11T12:12:52.391Z,74.20
2019-03-11T12:15:20.839Z,74.20
2019-03-11T12:17:49.274Z,72.80
2019-03-11T12:20:31.489Z,71.20
2019-03-11T12:23:00.042Z,70.30
2019-03-11T12:25:28.462Z,69.30
2019-03-11T12:27:58.172Z,69.60
2019-03-11T12:30:30.675Z,71.70
2019-03-11T12:32:59.462Z,73.20
2019-03-11T12:35:28.200Z,75.60
2019-03-11T12:37:56.972Z,75.70
2019-03-11T12:40:25.311Z,77.30
2019-03-11T12:42:53.803Z,79.60
2019-03-11T12:45:23.376Z,79.40
2019-03-11T12:47:51.859Z,78.00
2019-03-11T12:50:24.674Z,78.80
2019-03-11T12:52:53.182Z,76.20
2019-03-11T12:55:21.939Z,74.90
2019-03-11T12:57:50.834Z,75.00
2019-03-11T13:00:21.234Z,75.10
2019-03-11T13:02:49.701Z,73.80
2019-03-11T13:05:18.291Z,76.00
2019-03-11T13:07:46.701Z,76.00
2019-03-11T13:10:17.361Z,77.60
2019-03-11T13:12:45.771Z,77.70
2019-03-11T13:15:15.421Z,78.80
2019-03-11T13:17:43.914Z,77.00
2019-03-11T13:20:18.281Z,76.70
2019-03-11T13:22:48.989Z,76.10
2019-03-11T13:25:17.509Z,76.20
2019-03-11T13:27:45.909Z,76.80
2019-03-11T13:30:15.251Z,77.40
2019-03-11T13:32:43.664Z,76.20
2019-03-11T13:35:12.724Z,76.30
2019-03-11T13:37:41.113Z,77.70
2019-03-11T13:40:13.834Z,78.70
2019-03-11T13:42:42.273Z,78.50
2019-03-11T13:45:15.590Z,78.50
2019-03-11T13:47:44.146Z,78.60
2019-03-11T13:50:17.421Z,77.50
2019-03-11T13:52:45.898Z,76.40
2019-03-11T13:55:15.509Z,76.20
2019-03-11T13:57:44.125Z,75.80
2019-03-11T14:00:18.276Z,76.50
2019-03-11T14:02:46.684Z,75.10
2019-03-11T14:05:15.098Z,75.40
2019-03-11T14:07:43.626Z,73.20
2019-03-11T14:10:16.056Z,73.30
2019-03-11T14:12:44.909Z,72.90
2019-03-11T14:15:17.607Z,78.00
2019-03-11T14:17:45.318Z,78.20
2019-03-11T14:20:14.585Z,81.00
2019-03-11T14:22:42.986Z,82.30
2019-03-11T14:25:13.469Z,83.70
2019-03-11T14:27:41.907Z,85.00
2019-03-11T14:30:13.215Z,84.30
2019-03-11T14:32:41.702Z,85.50
2019-03-11T14:35:11.454Z,84.10
2019-03-11T14:37:39.924Z,84.10
2019-03-11T14:40:11.003Z,83.60
2019-03-11T14:42:39.419Z,83.80
2019-03-11T14:45:11.085Z,83.60
2019-03-11T14:47:39.572Z,83.10
2019-03-11T14:50:09.835Z,83.20
2019-03-11T14:52:38.255Z,83.60
2019-03-11T14:55:08.682Z,83.40
2019-03-11T14:57:37.167Z,84.10
2019-03-11T15:00:12.348Z,84.00
2019-03-11T15:02:55.893Z,85.00
2019-03-11T15:05:24.475Z,83.00
2019-03-11T15:07:52.917Z,79.40
2019-03-11T15:10:21.317Z,80.70
2019-03-11T15:12:49.738Z,80.30
2019-03-11T15:15:24.641Z,79.60
2019-03-11T15:17:53.118Z,76.30
2019-03-11T15:20:21.762Z,78.60
2019-03-11T15:22:50.350Z,78.50
2019-03-11T15:25:18.918Z,80.10
2019-03-11T15:27:47.912Z,79.50
2019-03-11T15:30:21.362Z,78.60
2019-03-11T15:32:50.019Z,76.60
2019-03-11T15:35:18.491Z,78.10
2019-03-11T15:37:46.966Z,79.30
2019-03-11T15:40:18.937Z,79.80
2019-03-11T15:42:47.447Z,79.90
2019-03-11T15:45:17.024Z,79.80
2019-03-11T15:47:45.472Z,79.50
2019-03-11T15:50:28.605Z,80.70
2019-03-11T15:52:57.190Z,77.60
2019-03-11T15:55:25.661Z,80.50
2019-03-11T15:57:54.171Z,80.70
2019-03-11T16:00:23.354Z,80.00
2019-03-11T16:02:51.740Z,78.90
2019-03-11T16:05:21.277Z,80.60
2019-03-11T16:07:50.244Z,78.60
2019-03-11T16:10:19.138Z,79.10
2019-03-11T16:12:47.671Z,80.20
2019-03-11T16:15:17.277Z,79.50
2019-03-11T16:17:45.716Z,78.40
2019-03-11T16:20:20.204Z,79.80
2019-03-11T16:22:48.938Z,78.60
2019-03-11T16:25:17.253Z,78.60
2019-03-11T16:27:45.677Z,80.00
2019-03-11T16:30:18.944Z,80.50
2019-03-11T16:32:58.435Z,78.80
2019-03-11T16:35:18.091Z,80.60
2019-03-11T16:37:46.642Z,80.90
2019-03-11T16:40:15.236Z,82.30
2019-03-11T16:42:43.701Z,82.80
2019-03-11T16:45:13.556Z,82.90
2019-03-11T16:47:41.967Z,83.20
2019-03-11T16:50:21.454Z,82.50
2019-03-11T16:52:49.860Z,81.90
2019-03-11T16:55:24.954Z,81.10
2019-03-11T16:57:53.918Z,80.60
2019-03-11T17:00:24.303Z,79.60
2019-03-11T17:02:52.734Z,78.70
2019-03-11T17:05:21.214Z,79.80
2019-03-11T17:07:49.721Z,80.10
2019-03-11T17:10:20.472Z,79.10
2019-03-11T17:12:48.874Z,80.60
2019-03-11T17:15:17.287Z,81.30
2019-03-11T17:17:45.744Z,81.90
2019-03-11T17:20:18.433Z,81.70
2019-03-11T17:22:46.825Z,82.50
2019-03-11T17:25:15.733Z,82.50
2019-03-11T17:27:44.167Z,82.30
2019-03-11T17:30:20.664Z,81.80
2019-03-11T17:32:50.701Z,80.90
2019-03-11T17:35:19.261Z,80.50
2019-03-11T17:37:47.798Z,79.20
2019-03-11T17:40:18.798Z,80.70
2019-03-11T17:42:47.249Z,79.70
2019-03-11T17:45:16.332Z,81.50
2019-03-11T17:47:44.901Z,81.90
2019-03-11T17:50:17.008Z,82.50
2019-03-11T17:52:45.631Z,84.20
2019-03-11T17:55:16.300Z,83.70
2019-03-11T17:57:44.882Z,83.60
2019-03-11T18:00:20.295Z,83.30
2019-03-11T18:02:48.684Z,82.50
2019-03-11T18:05:17.351Z,82.70
2019-03-11T18:07:46.098Z,82.00
2019-03-11T18:10:23.508Z,81.60
2019-03-11T18:12:51.450Z,79.30
2019-03-11T18:15:19.903Z,81.10
2019-03-11T18:17:48.317Z,80.90
2019-03-11T18:20:20.225Z,81.00
2019-03-11T18:22:48.686Z,79.60
2019-03-11T18:25:18.146Z,78.50
2019-03-11T18:27:46.735Z,78.70
2019-03-11T18:30:20.256Z,79.90
2019-03-11T18:32:48.638Z,78.60
2019-03-11T18:35:17.237Z,80.80
2019-03-11T18:37:45.847Z,79.70
2019-03-11T18:40:16.802Z,79.30
2019-03-11T18:42:45.196Z,79.40
2019-03-11T18:45:14.102Z,80.50
2019-03-11T18:47:42.581Z,79.90
2019-03-11T18:50:19.462Z,80.50
2019-03-11T18:52:47.962Z,80.90
2019-03-11T18:55:16.404Z,81.40
2019-03-11T18:57:44.953Z,81.40
2019-03-11T19:00:22.405Z,82.00
2019-03-11T19:02:51.052Z,81.80
2019-03-11T19:05:23.813Z,81.70
2019-03-11T19:07:54.903Z,80.80
2019-03-11T19:10:22.207Z,81.10
2019-03-11T19:12:50.839Z,81.40
2019-03-11T19:15:21.495Z,82.00
2019-03-11T19:17:49.915Z,81.70
2019-03-11T19:20:19.897Z,81.40
2019-03-11T19:22:48.356Z,80.80
2019-03-11T19:25:17.274Z,81.20
2019-03-11T19:27:45.811Z,80.40
2019-03-11T19:30:20.361Z,81.30
2019-03-11T19:32:48.912Z,79.80
2019-03-11T19:35:18.102Z,81.10
2019-03-11T19:37:46.592Z,81.40
2019-03-11T19:40:19.852Z,81.70
2019-03-11T19:42:48.269Z,81.80
2019-03-11T19:45:17.016Z,82.30
2019-03-11T19:47:45.574Z,83.20
2019-03-11T19:50:15.223Z,83.50
2019-03-11T19:52:43.693Z,85.00
2019-03-11T19:55:12.249Z,84.50
2019-03-11T19:57:40.655Z,84.20
2019-03-11T20:00:18.213Z,83.70
2019-03-11T20:02:46.605Z,83.70
2019-03-11T20:05:18.185Z,82.50
2019-03-11T20:07:46.665Z,83.90
2019-03-11T20:10:15.286Z,83.50
2019-03-11T20:12:44.050Z,82.70
2019-03-11T20:15:13.306Z,83.40
2019-03-11T20:17:41.937Z,83.30
2019-03-11T20:20:13.071Z,83.80
2019-03-11T20:22:41.526Z,84.20
2019-03-11T20:25:15.322Z,83.20
2019-03-11T20:27:43.988Z,85.10
2019-03-11T20:30:17.689Z,82.80
2019-03-11T20:32:46.145Z,83.20
2019-03-11T20:35:17.263Z,82.30
2019-03-11T20:37:45.009Z,81.90
2019-03-11T20:40:13.686Z,82.60
2019-03-11T20:42:42.111Z,83.20
2019-03-11T20:45:13.238Z,82.80
2019-03-11T20:47:42.653Z,83.30
2019-03-11T20:50:13.045Z,82.70
2019-03-11T20:52:41.467Z,83.50
2019-03-11T20:55:15.116Z,82.60
2019-03-11T20:57:43.549Z,83.70
2019-03-11T21:00:20.366Z,82.80
2019-03-11T21:02:49.000Z,84.10
2019-03-11T21:05:38.338Z,82.50
2019-03-11T21:08:06.877Z,82.60
2019-03-11T21:10:35.390Z,82.40
2019-03-11T21:13:04.042Z,83.60
2019-03-11T21:15:32.535Z,86.30
2019-03-11T21:18:01.040Z,86.10
2019-03-11T21:20:29.525Z,85.70
2019-03-11T21:22:57.873Z,86.50
2019-03-11T21:25:26.476Z,85.90
2019-03-11T21:27:54.855Z,85.10
2019-03-11T21:30:24.717Z,85.50
2019-03-11T21:32:53.250Z,85.70
2019-03-11T21:35:21.900Z,84.70
2019-03-11T21:37:50.577Z,85.70
2019-03-11T21:40:20.616Z,85.20
2019-03-11T21:42:49.170Z,86.10
2019-03-11T21:45:17.994Z,85.60
2019-03-11T21:47:46.600Z,86.80
2019-03-11T21:50:17.588Z,86.50
2019-03-11T21:52:46.040Z,86.20
2019-03-11T21:55:14.435Z,86.20
2019-03-11T21:57:42.926Z,86.80
2019-03-11T22:00:28.402Z,86.80
2019-03-11T22:02:48.190Z,87.70
2019-03-11T22:05:16.680Z,86.80
2019-03-11T22:07:45.049Z,87.50
2019-03-11T22:10:17.423Z,87.60
2019-03-11T22:12:45.178Z,88.30
2019-03-11T22:15:16.053Z,88.60
2019-03-11T22:17:44.516Z,88.60
2019-03-11T22:20:16.748Z,88.90
2019-03-11T22:22:45.140Z,90.00
2019-03-11T22:25:18.277Z,89.00
2019-03-11T22:27:46.698Z,89.80
2019-03-11T22:30:22.232Z,89.30
2019-03-11T22:32:50.653Z,90.30
2019-03-11T22:35:19.072Z,90.00
2019-03-11T22:37:47.508Z,89.80
2019-03-11T22:40:17.176Z,90.00
2019-03-11T22:42:45.789Z,90.20
2019-03-11T22:45:17.612Z,90.10
2019-03-11T22:47:46.085Z,90.10
2019-03-11T22:50:17.631Z,90.10
2019-03-11T22:52:44.611Z,90.10
2019-03-11T22:55:13.200Z,90.00
2019-03-11T22:57:41.580Z,90.50
2019-03-11T23:00:15.890Z,90.00
2019-03-11T23:02:44.410Z,90.00
2019-03-11T23:05:12.794Z,90.00
2019-03-11T23:07:41.332Z,89.70
2019-03-11T23:10:09.735Z,89.80
2019-03-11T23:12:38.218Z,89.50
2019-03-11T23:15:07.919Z,90.00
2019-03-11T23:17:36.295Z,90.00
2019-03-11T23:20:06.770Z,89.80
2019-03-11T23:22:35.611Z,90.00
2019-03-11T23:25:05.853Z,90.00
2019-03-11T23:27:35.402Z,90.10
2019-03-11T23:30:06.648Z,90.10
2019-03-11T23:32:35.023Z,90.20
2019-03-11T23:35:03.841Z,90.00
2019-03-11T23:37:32.233Z,90.30
2019-03-11T23:40:00.898Z,90.30
2019-03-11T23:42:29.431Z,90.50
2019-03-11T23:44:57.841Z,90.30
2019-03-11T23:47:26.276Z,90.50
2019-03-11T23:49:54.734Z,90.60
2019-03-11T23:52:23.158Z,90.60
2019-03-11T23:54:51.595Z,90.50
2019-03-11T23:57:20.030Z,90.50
2019-03-11T23:59:48.446Z,90.40
